createdAt,value
2022-08-28T00:00:43.533Z,7.00
2022-08-28T00:03:17.479Z,7.40
2022-08-28T00:05:47.481Z,7.90
2022-08-28T00:08:19.254Z,7.15
2022-08-28T00:10:49.275Z,7.45
2022-08-28T00:13:21.595Z,6.55
2022-08-28T00:15:55.570Z,7.18
2022-08-28T00:18:28.522Z,6.75
2022-08-28T00:21:00.353Z,7.72
2022-08-28T00:23:42.527Z,8.07
2022-08-28T00:26:36.293Z,7.53
2022-08-28T00:29:08.042Z,8.00
2022-08-28T00:31:41.303Z,7.30
2022-08-28T00:34:13.737Z,8.65
2022-08-28T00:36:43.832Z,7.50
2022-08-28T00:39:13.877Z,7.55
2022-08-28T00:41:46.423Z,8.82
2022-08-28T00:44:20.520Z,8.57
2022-08-28T00:46:52.426Z,7.88
2022-08-28T00:49:32.041Z,8.02
2022-08-28T00:52:12.322Z,6.32
2022-08-28T00:54:59.492Z,7.53
2022-08-28T00:57:37.279Z,6.88
2022-08-28T01:00:11.129Z,7.10
2022-08-28T01:02:44.062Z,5.95
2022-08-28T01:05:18.205Z,6.00
2022-08-28T01:07:49.969Z,6.15
2022-08-28T01:10:23.943Z,5.97
2022-08-28T01:12:57.167Z,5.53
2022-08-28T01:15:40.434Z,6.00
2022-08-28T01:18:13.759Z,5.45
2022-08-28T01:20:53.362Z,5.68
2022-08-28T01:23:32.088Z,6.20
2022-08-28T01:26:10.947Z,5.10
2022-08-28T01:28:42.064Z,5.53
2022-08-28T01:31:13.139Z,4.95
2022-08-28T01:33:44.143Z,4.68
2022-08-28T01:36:15.097Z,5.20
2022-08-28T01:38:48.141Z,4.82
2022-08-28T01:41:21.488Z,4.57
2022-08-28T01:43:51.399Z,5.13
2022-08-28T01:46:21.502Z,5.10
2022-08-28T01:48:51.728Z,5.20
2022-08-28T01:51:24.585Z,4.53
2022-08-28T01:53:56.873Z,4.68
2022-08-28T01:56:31.514Z,5.38
2022-08-28T01:59:01.748Z,6.05
2022-08-28T02:01:34.233Z,5.03
2022-08-28T02:04:05.146Z,5.45
2022-08-28T02:06:36.726Z,4.95
2022-08-28T02:09:14.329Z,5.18
2022-08-28T02:11:47.614Z,5.30
2022-08-28T02:14:18.044Z,4.95
2022-08-28T02:16:47.994Z,5.40
2022-08-28T02:19:17.779Z,5.13
2022-08-28T02:21:47.571Z,5.30
2022-08-28T02:24:17.607Z,4.95
2022-08-28T02:26:50.170Z,5.65
2022-08-28T02:29:20.191Z,4.72
2022-08-28T02:31:52.314Z,5.70
2022-08-28T02:34:22.158Z,5.32
2022-08-28T02:36:52.890Z,5.05
2022-08-28T02:39:22.609Z,4.70
2022-08-28T02:41:57.747Z,4.85
2022-08-28T02:44:29.508Z,5.00
2022-08-28T02:47:00.789Z,5.10
2022-08-28T02:49:39.775Z,6.07
2022-08-28T02:52:09.785Z,4.90
2022-08-28T02:54:41.143Z,5.05
2022-08-28T02:57:14.361Z,5.18
2022-08-28T02:59:44.247Z,5.15
2022-08-28T03:02:14.625Z,5.70
2022-08-28T03:04:44.904Z,5.30
2022-08-28T03:07:17.013Z,4.63
2022-08-28T03:09:46.873Z,6.72
2022-08-28T03:12:24.203Z,5.78
2022-08-28T03:15:01.061Z,5.10
2022-08-28T03:17:33.995Z,5.65
2022-08-28T03:20:06.717Z,4.78
2022-08-28T03:22:52.135Z,6.53
2022-08-28T03:25:22.430Z,5.22
2022-08-28T03:27:55.838Z,4.95
2022-08-28T03:30:29.091Z,4.95
2022-08-28T03:33:01.660Z,4.93
2022-08-28T03:35:39.100Z,6.07
2022-08-28T03:38:12.821Z,5.22
2022-08-28T03:40:44.163Z,5.30
2022-08-28T03:43:20.527Z,5.88
2022-08-28T03:46:07.578Z,5.85
2022-08-28T03:48:42.630Z,5.43
2022-08-28T03:51:16.842Z,5.40
2022-08-28T03:53:47.854Z,5.10
2022-08-28T03:56:23.781Z,4.80
2022-08-28T03:58:58.903Z,5.50
2022-08-28T04:01:29.313Z,5.57
2022-08-28T04:04:00.311Z,5.75
2022-08-28T04:06:31.099Z,5.35
2022-08-28T04:09:01.184Z,5.38
2022-08-28T04:11:34.355Z,5.38
2022-08-28T04:14:09.349Z,5.72
2022-08-28T04:16:39.347Z,5.43
2022-08-28T04:19:09.089Z,5.10
2022-08-28T04:21:40.086Z,5.43
2022-08-28T04:24:10.022Z,6.53
2022-08-28T04:26:39.790Z,4.78
2022-08-28T04:29:12.030Z,4.85
2022-08-28T04:31:42.080Z,5.82
2022-08-28T04:34:12.000Z,5.65
2022-08-28T04:36:41.822Z,5.50
2022-08-28T04:39:11.794Z,4.75
2022-08-28T04:41:41.952Z,5.00
2022-08-28T04:44:14.871Z,5.43
2022-08-28T04:46:44.880Z,5.60
2022-08-28T04:49:17.977Z,4.50
2022-08-28T04:51:48.744Z,4.82
2022-08-28T04:54:18.564Z,5.22
2022-08-28T04:56:49.245Z,4.90
2022-08-28T04:59:22.036Z,5.65
2022-08-28T05:01:52.134Z,5.80
2022-08-28T05:04:22.625Z,5.72
2022-08-28T05:06:52.574Z,5.50
2022-08-28T05:09:23.278Z,6.20
2022-08-28T05:11:53.565Z,5.80
2022-08-28T05:14:28.406Z,6.10
2022-08-28T05:17:00.112Z,6.32
2022-08-28T05:19:36.474Z,7.95
2022-08-28T05:22:09.987Z,6.20
2022-08-28T05:24:41.710Z,6.85
2022-08-28T05:27:11.713Z,7.03
2022-08-28T05:29:44.145Z,7.40
2022-08-28T05:32:13.968Z,6.43
2022-08-28T05:34:43.649Z,5.82
2022-08-28T05:37:19.597Z,5.72
2022-08-28T05:39:49.636Z,5.68
2022-08-28T05:42:19.257Z,5.35
2022-08-28T05:44:54.723Z,5.72
2022-08-28T05:47:24.703Z,5.85
2022-08-28T05:49:54.606Z,5.35
2022-08-28T05:52:25.466Z,4.38
2022-08-28T05:54:55.282Z,4.60
2022-08-28T05:57:24.995Z,5.57
2022-08-28T05:59:57.338Z,5.03
2022-08-28T06:02:30.141Z,4.20
2022-08-28T06:05:00.140Z,4.45
2022-08-28T06:07:29.772Z,4.05
2022-08-28T06:10:00.265Z,4.13
2022-08-28T06:12:30.721Z,4.10
2022-08-28T06:15:06.978Z,4.40
2022-08-28T06:17:40.461Z,4.07
2022-08-28T06:20:12.136Z,3.50
2022-08-28T06:22:41.744Z,3.28
2022-08-28T06:25:14.342Z,3.95
2022-08-28T06:27:44.038Z,3.70
2022-08-28T06:30:16.776Z,3.33
2022-08-28T06:32:46.429Z,4.60
2022-08-28T06:35:16.170Z,3.53
2022-08-28T06:37:45.954Z,3.33
2022-08-28T06:40:16.151Z,3.97
2022-08-28T06:42:45.881Z,3.17
2022-08-28T06:45:18.155Z,2.90
2022-08-28T06:47:50.210Z,3.40
2022-08-28T06:50:23.014Z,3.05
2022-08-28T06:52:52.606Z,3.00
2022-08-28T06:55:22.525Z,3.00
2022-08-28T06:57:52.594Z,3.15
2022-08-28T07:00:25.325Z,3.58
2022-08-28T07:02:55.283Z,2.83
2022-08-28T07:05:25.145Z,2.90
2022-08-28T07:07:55.995Z,3.22
2022-08-28T07:10:25.673Z,3.60
2022-08-28T07:12:55.253Z,3.25
2022-08-28T07:15:30.011Z,3.25
2022-08-28T07:18:04.013Z,3.40
2022-08-28T07:20:35.678Z,3.30
2022-08-28T07:23:06.651Z,3.30
2022-08-28T07:25:43.333Z,2.85
2022-08-28T07:28:13.066Z,3.40
2022-08-28T07:30:49.178Z,3.30
2022-08-28T07:33:20.402Z,2.90
2022-08-28T07:35:50.504Z,3.22
2022-08-28T07:38:20.297Z,3.10
2022-08-28T07:40:50.225Z,3.00
2022-08-28T07:43:35.722Z,3.10
2022-08-28T07:46:11.891Z,2.40
2022-08-28T07:48:48.024Z,2.97
2022-08-28T07:51:17.631Z,2.97
2022-08-28T07:53:47.455Z,3.08
2022-08-28T07:56:17.101Z,2.78
2022-08-28T07:58:46.852Z,2.80
2022-08-28T08:01:19.777Z,3.15
2022-08-28T08:03:50.214Z,2.90
2022-08-28T08:06:25.561Z,2.55
2022-08-28T08:09:00.854Z,2.60
2022-08-28T08:11:36.697Z,2.30
2022-08-28T08:14:09.549Z,2.72
2022-08-28T08:16:44.010Z,2.92
2022-08-28T08:19:16.601Z,2.42
2022-08-28T08:21:48.465Z,2.70
2022-08-28T08:24:27.980Z,2.40
2022-08-28T08:27:00.885Z,2.20
2022-08-28T08:29:37.308Z,2.50
2022-08-28T08:32:12.903Z,2.30
2022-08-28T08:34:45.910Z,2.72
2022-08-28T08:37:16.059Z,2.00
2022-08-28T08:39:46.964Z,2.97
2022-08-28T08:42:25.600Z,2.35
2022-08-28T08:44:58.308Z,2.92
2022-08-28T08:47:41.058Z,3.28
2022-08-28T08:50:17.430Z,2.30
2022-08-28T08:53:05.585Z,2.28
2022-08-28T08:55:46.027Z,2.65
2022-08-28T08:58:22.500Z,2.90
2022-08-28T09:01:00.542Z,2.75
2022-08-28T09:03:47.540Z,2.58
2022-08-28T09:06:28.597Z,2.25
2022-08-28T09:09:05.588Z,2.63
2022-08-28T09:11:55.487Z,1.83
2022-08-28T09:14:37.074Z,2.22
2022-08-28T09:17:11.638Z,2.13
2022-08-28T09:19:44.282Z,2.15
2022-08-28T09:22:17.051Z,2.40
2022-08-28T09:24:47.022Z,2.10
2022-08-28T09:30:07.986Z,2.15
2022-08-28T09:32:41.784Z,2.58
2022-08-28T09:37:49.104Z,2.70
2022-08-28T09:40:25.616Z,2.45
2022-08-28T09:43:31.562Z,2.05
2022-08-28T09:46:05.132Z,2.33
2022-08-28T09:48:43.883Z,2.25
2022-08-28T09:51:29.657Z,2.10
2022-08-28T09:54:05.420Z,2.20
2022-08-28T09:56:39.952Z,2.42
2022-08-28T09:59:12.196Z,2.45
2022-08-28T10:02:11.683Z,1.95
2022-08-28T10:04:54.362Z,2.17
2022-08-28T10:07:40.735Z,2.40
2022-08-28T10:10:24.711Z,2.20
2022-08-28T10:13:06.485Z,2.50
2022-08-28T10:15:56.994Z,2.08
2022-08-28T10:18:41.535Z,2.60
2022-08-28T10:21:18.149Z,2.50
2022-08-28T10:24:26.910Z,2.22
2022-08-28T10:27:09.347Z,1.92
2022-08-28T10:33:11.530Z,3.17
2022-08-28T10:35:50.010Z,2.47
2022-08-28T10:38:22.521Z,2.35
2022-08-28T10:41:04.207Z,2.65
2022-08-28T10:43:45.452Z,1.88
2022-08-28T10:46:27.047Z,2.50
2022-08-28T10:49:05.154Z,2.53
2022-08-28T10:51:44.401Z,2.72
2022-08-28T10:54:24.445Z,2.20
2022-08-28T10:57:01.594Z,2.05
2022-08-28T10:59:42.345Z,2.38
2022-08-28T11:02:16.981Z,1.92
2022-08-28T11:04:56.486Z,2.38
2022-08-28T11:07:40.971Z,2.22
2022-08-28T11:10:48.701Z,2.67
2022-08-28T11:13:50.156Z,2.30
2022-08-28T11:16:28.232Z,2.22
2022-08-28T11:19:28.957Z,2.28
2022-08-28T11:22:08.821Z,1.92
2022-08-28T11:24:49.519Z,2.00
2022-08-28T11:27:25.660Z,2.65
2022-08-28T11:30:28.300Z,2.38
2022-08-28T11:33:13.216Z,2.80
2022-08-28T11:35:52.930Z,2.35
2022-08-28T11:38:52.577Z,2.40
2022-08-28T11:41:26.887Z,2.10
2022-08-28T11:44:28.473Z,1.90
2022-08-28T11:47:36.405Z,2.22
2022-08-28T11:50:31.303Z,2.55
2022-08-28T11:53:28.967Z,2.00
2022-08-28T11:56:30.470Z,1.90
2022-08-28T11:59:26.012Z,2.25
2022-08-28T12:02:38.213Z,1.85
2022-08-28T12:05:44.279Z,2.17
2022-08-28T12:08:40.129Z,2.28
2022-08-28T12:11:10.734Z,2.40
2022-08-28T12:13:52.962Z,2.05
2022-08-28T12:16:22.621Z,2.33
2022-08-28T12:19:05.673Z,1.90
2022-08-28T12:21:42.969Z,2.13
2022-08-28T12:24:23.586Z,2.00
2022-08-28T12:26:57.145Z,2.35
2022-08-28T12:29:32.436Z,1.90
2022-08-28T12:32:31.700Z,1.80
2022-08-28T12:35:20.228Z,2.10
2022-08-28T12:38:06.098Z,2.20
2022-08-28T12:40:51.085Z,2.15
2022-08-28T12:43:41.772Z,1.80
2022-08-28T12:46:23.505Z,2.13
2022-08-28T12:48:55.449Z,2.42
2022-08-28T12:51:30.683Z,2.08
2022-08-28T12:54:08.455Z,2.00
2022-08-28T12:56:42.317Z,2.35
2022-08-28T12:59:29.700Z,2.00
2022-08-28T13:02:08.218Z,2.28
2022-08-28T13:04:43.048Z,2.40
2022-08-28T13:07:16.854Z,1.90
2022-08-28T13:09:53.346Z,2.15
2022-08-28T13:12:54.460Z,2.20
2022-08-28T13:15:50.400Z,2.50
2022-08-28T13:18:51.376Z,1.90
2022-08-28T13:22:01.179Z,2.10
2022-08-28T13:24:45.751Z,2.22
2022-08-28T13:27:28.556Z,1.83
2022-08-28T13:30:05.240Z,2.08
2022-08-28T13:32:40.119Z,2.15
2022-08-28T13:35:40.058Z,2.35
2022-08-28T13:38:13.282Z,3.45
2022-08-28T13:40:58.761Z,2.47
2022-08-28T13:43:44.695Z,2.00
2022-08-28T13:46:14.602Z,2.45
2022-08-28T13:48:44.294Z,1.90
2022-08-28T13:51:20.719Z,2.10
2022-08-28T13:53:50.842Z,2.00
2022-08-28T13:56:22.196Z,2.10
2022-08-28T13:58:57.479Z,2.30
2022-08-28T14:01:48.966Z,2.30
2022-08-28T14:04:16.212Z,2.45
2022-08-28T14:06:45.849Z,2.40
2022-08-28T14:09:17.662Z,2.15
2022-08-28T14:11:48.464Z,2.45
2022-08-28T14:14:20.824Z,1.95
2022-08-28T14:16:50.749Z,1.80
2022-08-28T14:19:20.490Z,2.50
2022-08-28T14:21:50.566Z,2.00
2022-08-28T14:24:21.166Z,2.10
2022-08-28T14:26:54.871Z,2.10
2022-08-28T14:29:28.121Z,2.20
2022-08-28T14:34:30.052Z,2.00
2022-08-28T14:37:01.702Z,2.07
2022-08-28T14:39:31.769Z,2.10
2022-08-28T14:42:01.665Z,2.33
2022-08-28T14:44:38.291Z,2.05
2022-08-28T14:47:08.821Z,2.03
2022-08-28T14:49:42.503Z,1.98
2022-08-28T14:52:15.254Z,2.10
2022-08-28T14:54:45.117Z,2.22
2022-08-28T14:57:15.220Z,2.30
2022-08-28T14:59:48.001Z,2.42
2022-08-28T15:02:18.925Z,2.00
2022-08-28T15:04:51.946Z,2.15
2022-08-28T15:07:22.858Z,2.00
2022-08-28T15:09:52.734Z,2.03
2022-08-28T15:12:22.899Z,2.22
2022-08-28T15:14:57.382Z,2.30
2022-08-28T15:17:33.916Z,1.80
2022-08-28T15:20:05.102Z,2.33
2022-08-28T15:22:37.204Z,2.03
2022-08-28T15:25:11.733Z,1.90
2022-08-28T15:27:41.560Z,2.00
2022-08-28T15:30:15.133Z,2.10
2022-08-28T15:32:46.276Z,2.05
2022-08-28T15:35:16.135Z,2.00
2022-08-28T15:37:45.842Z,2.17
2022-08-28T15:40:28.176Z,1.90
2022-08-28T15:42:59.197Z,2.33
2022-08-28T15:45:37.876Z,2.05
2022-08-28T15:48:08.332Z,2.30
2022-08-28T15:50:39.273Z,2.00
2022-08-28T15:53:10.034Z,1.73
2022-08-28T15:55:40.002Z,2.08
2022-08-28T15:58:14.188Z,2.47
2022-08-28T16:00:46.849Z,2.15
2022-08-28T16:03:16.720Z,2.15
2022-08-28T16:05:47.687Z,2.70
2022-08-28T16:08:17.357Z,2.40
2022-08-28T16:10:50.652Z,3.22
2022-08-28T16:15:53.110Z,2.30
2022-08-28T16:18:23.390Z,2.40
2022-08-28T16:20:53.077Z,2.30
2022-08-28T16:23:22.808Z,2.10
2022-08-28T16:25:52.674Z,2.47
2022-08-28T16:28:22.367Z,2.05
2022-08-28T16:30:55.040Z,2.58
2022-08-28T16:33:27.076Z,2.00
2022-08-28T16:35:57.017Z,2.22
2022-08-28T16:38:28.741Z,2.03
2022-08-28T16:40:58.885Z,2.47
2022-08-28T16:43:29.122Z,2.58
2022-08-28T16:46:01.462Z,2.40
2022-08-28T16:48:31.471Z,2.63
2022-08-28T16:51:01.080Z,2.90
2022-08-28T16:53:36.638Z,2.30
2022-08-28T16:56:09.949Z,2.70
2022-08-28T16:58:41.307Z,2.72
2022-08-28T17:01:15.993Z,2.30
2022-08-28T17:03:46.231Z,2.20
2022-08-28T17:06:19.625Z,2.63
2022-08-28T17:11:24.989Z,2.78
2022-08-28T17:13:55.530Z,2.35
2022-08-28T17:16:31.710Z,2.22
2022-08-28T17:19:05.309Z,2.28
2022-08-28T17:21:47.499Z,2.20
2022-08-28T17:24:17.200Z,2.10
2022-08-28T17:26:47.119Z,2.90
2022-08-28T17:29:16.961Z,3.13
2022-08-28T17:31:49.544Z,2.58
2022-08-28T17:34:21.360Z,2.07
2022-08-28T17:36:52.940Z,2.47
2022-08-28T17:39:24.472Z,2.28
2022-08-28T17:41:55.392Z,2.17
2022-08-28T17:44:25.846Z,2.35
2022-08-28T17:46:58.155Z,2.42
2022-08-28T17:49:28.539Z,2.25
2022-08-28T17:51:59.984Z,2.22
2022-08-28T17:54:31.443Z,2.38
2022-08-28T17:57:04.970Z,2.67
2022-08-28T17:59:39.601Z,2.53
2022-08-28T18:02:16.561Z,2.50
2022-08-28T18:04:46.891Z,2.40
2022-08-28T18:07:16.696Z,2.38
2022-08-28T18:09:47.555Z,2.20
2022-08-28T18:12:17.370Z,2.08
2022-08-28T18:14:47.308Z,2.20
2022-08-28T18:17:20.061Z,2.58
2022-08-28T18:19:50.039Z,2.25
2022-08-28T18:22:20.007Z,2.33
2022-08-28T18:24:55.588Z,2.33
2022-08-28T18:27:29.804Z,2.28
2022-08-28T18:30:04.673Z,2.63
2022-08-28T18:32:43.732Z,2.47
2022-08-28T18:35:13.596Z,2.10
2022-08-28T18:37:43.582Z,2.33
2022-08-28T18:40:14.041Z,2.30
2022-08-28T18:42:44.014Z,2.58
2022-08-28T18:45:16.691Z,2.33
2022-08-28T18:47:52.034Z,2.20
2022-08-28T18:52:53.578Z,2.67
2022-08-28T18:55:25.969Z,2.67
2022-08-28T18:57:56.204Z,2.40
2022-08-28T19:00:26.914Z,2.70
2022-08-28T19:02:59.537Z,2.83
2022-08-28T19:05:41.499Z,3.30
2022-08-28T19:08:11.608Z,2.60
2022-08-28T19:10:41.963Z,2.80
2022-08-28T19:13:11.850Z,2.45
2022-08-28T19:15:41.993Z,2.50
2022-08-28T19:18:17.185Z,2.22
2022-08-28T19:20:46.976Z,2.50
2022-08-28T19:23:17.899Z,3.17
2022-08-28T19:25:49.086Z,2.80
2022-08-28T19:28:19.019Z,2.25
2022-08-28T19:30:49.313Z,2.30
2022-08-28T19:33:22.050Z,2.38
2022-08-28T19:35:51.893Z,2.70
2022-08-28T19:38:21.730Z,2.20
2022-08-28T19:40:51.882Z,2.53
2022-08-28T19:43:21.560Z,2.42
2022-08-28T19:45:52.593Z,2.50
2022-08-28T19:48:25.411Z,2.63
2022-08-28T19:51:05.102Z,2.42
2022-08-28T19:53:36.838Z,2.60
2022-08-28T19:56:14.361Z,2.20
2022-08-28T19:58:44.284Z,2.30
2022-08-28T20:01:17.222Z,2.70
2022-08-28T20:03:50.991Z,2.30
2022-08-28T20:06:20.813Z,2.55
2022-08-28T20:08:50.626Z,2.35
2022-08-28T20:11:25.144Z,3.03
2022-08-28T20:13:55.686Z,2.13
2022-08-28T20:16:25.421Z,2.47
2022-08-28T20:18:58.009Z,3.70
2022-08-28T20:21:37.634Z,2.75
2022-08-28T20:24:09.433Z,2.25
2022-08-28T20:26:41.011Z,2.53
2022-08-28T20:29:12.719Z,2.53
2022-08-28T20:31:44.275Z,2.40
2022-08-28T20:34:18.737Z,3.05
2022-08-28T20:36:48.829Z,2.60
2022-08-28T20:39:19.138Z,2.67
2022-08-28T20:41:49.376Z,2.85
2022-08-28T20:44:22.011Z,2.40
2022-08-28T20:46:54.640Z,2.80
2022-08-28T20:49:27.068Z,2.80
2022-08-28T20:51:57.649Z,2.58
2022-08-28T20:54:33.032Z,2.92
2022-08-28T20:57:08.771Z,2.80
2022-08-28T20:59:40.719Z,3.28
2022-08-28T21:02:15.342Z,2.65
2022-08-28T21:04:48.865Z,2.88
2022-08-28T21:10:06.712Z,2.80
2022-08-28T21:12:41.876Z,2.50
2022-08-28T21:15:15.007Z,3.00
2022-08-28T21:17:44.986Z,2.72
2022-08-28T21:20:20.425Z,2.75
2022-08-28T21:22:50.829Z,2.88
2022-08-28T21:25:22.370Z,2.60
2022-08-28T21:27:52.026Z,2.60
2022-08-28T21:30:24.229Z,3.05
2022-08-28T21:33:00.008Z,2.78
2022-08-28T21:35:36.921Z,3.42
2022-08-28T21:38:09.869Z,3.08
2022-08-28T21:40:40.206Z,2.90
2022-08-28T21:43:10.677Z,2.63
2022-08-28T21:45:41.742Z,3.13
2022-08-28T21:48:12.043Z,3.13
2022-08-28T21:50:47.693Z,3.13
2022-08-28T21:53:20.035Z,3.50
2022-08-28T21:55:53.198Z,3.63
2022-08-28T21:58:24.918Z,2.88
2022-08-28T22:00:58.857Z,3.40
2022-08-28T22:03:34.869Z,3.58
2022-08-28T22:06:13.636Z,2.97
2022-08-28T22:08:43.919Z,2.60
2022-08-28T22:11:14.432Z,2.80
2022-08-28T22:13:45.563Z,2.70
2022-08-28T22:16:15.985Z,3.17
2022-08-28T22:18:46.226Z,2.88
2022-08-28T22:21:37.502Z,3.35
2022-08-28T22:24:13.300Z,2.65
2022-08-28T22:26:44.970Z,2.92
2022-08-28T22:29:15.349Z,2.75
2022-08-28T22:31:46.097Z,2.88
2022-08-28T22:34:16.187Z,3.20
2022-08-28T22:36:48.803Z,3.05
2022-08-28T22:39:18.602Z,2.90
2022-08-28T22:41:48.546Z,2.90
2022-08-28T22:44:18.418Z,3.10
2022-08-28T22:46:48.252Z,3.35
2022-08-28T22:49:18.018Z,2.50
2022-08-28T22:51:50.365Z,3.05
2022-08-28T22:54:20.149Z,3.10
2022-08-28T22:56:49.888Z,3.28
2022-08-28T22:59:19.802Z,3.10
2022-08-28T23:01:49.601Z,3.10
2022-08-28T23:04:19.448Z,3.20
2022-08-28T23:06:51.873Z,3.15
2022-08-28T23:09:22.172Z,3.38
2022-08-28T23:11:52.293Z,2.92
2022-08-28T23:14:22.935Z,3.00
2022-08-28T23:16:55.090Z,3.15
2022-08-28T23:19:24.937Z,3.13
2022-08-28T23:21:57.849Z,3.25
2022-08-28T23:24:28.140Z,3.17
2022-08-28T23:27:09.364Z,3.83
2022-08-28T23:29:47.413Z,3.15
2022-08-28T23:32:22.971Z,3.20
2022-08-28T23:34:52.652Z,2.85
2022-08-28T23:37:25.067Z,3.47
2022-08-28T23:39:54.916Z,3.40
2022-08-28T23:42:24.671Z,3.17
2022-08-28T23:44:56.018Z,3.72
2022-08-28T23:47:25.710Z,2.97
2022-08-28T23:49:57.520Z,3.10
2022-08-28T23:52:30.080Z,2.95
2022-08-28T23:55:00.126Z,3.30
2022-08-28T23:57:30.923Z,3.45
